Grandfield, OK (73546)

2:57 PM CST on January 23, 2017 (GMT -0600)
Old Corral | | Change Station
Active Advisory: Fire Weather Watch

Elev 1112 ft 34.12 °N, 98.84 °W | Updated 29 seconds ago

Clear
Clear
67.8 °F
Feels Like 67.8 °F
N
10.0
Wind Variable Wind from SSW

Today
High -- | Low -- °F
--% Chance of Precip.
Yesterday
High -- | Low -- °F
Precip. -- in
Pressure 29.72 in
Visibility 10.0 miles
Clouds Clear
Dew Point 41 °F
Humidity 39%
Rainfall 0.00 in
Snow Depth Not available.
7:37 AM 5:56 PM
Waning Crescent, 16% visible
METAR KFDR 232053Z AUTO 19011KT 10SM CLR 19/03 A2973 RMK AO2 SLP064 T01940028 56046
Pressure 29.72 in
Visibility 10.0 miles
Clouds Clear
Dew Point 41 °F
Humidity 39%
Rainfall 0.00 in
Snow Depth Not available.
7:37 AM 5:56 PM
Waning Crescent, 16% visible
METAR KFDR 232053Z AUTO 19011KT 10SM CLR 19/03 A2973 RMK AO2 SLP064 T01940028 56046

Get Your Daily Forecast Email!

Thanks for signing up!

Be on the lookout for a verification email in your inbox.

You'll start receiving the daily forecast at 8 AM.

×

10-Day Weather Forecast

Almanac

Astronomy

Jan. 23, 2017 Rise Set
Actual Time
Civil Twilight
Nautical Twilight
Astronomical Twilight
Moon
Length of Visible Light
Length of Day
Tomorrow will be .
, % of the Moon is Illuminated

Today's Extremes

State Highs State Lows

Community

WunderPhotos

Upload Photos

1,962,540 photos uploaded!

WunderBlog® & News

Nearby

Air Quality

  Air Quality AQ Index Pollutant
Not available.

Snow Depth

Station Depth Elevation

Earthquake Activity

City Distance Mag. Time & Date
Minimum magnitude displayed is 2.5.

Coastal Water Temperatures

Place Temperature

Stations

Nearby Weather Stations

Station Location Temp. Windchill Dew Point Humidity Wind Precip. Elev Updated Type
                   

Watches & Warnings

Fire Weather Watch
Issued: 1:23 PM CST Jan. 23, 2017 – National Weather Service

... Fire Weather Watch in effect Tuesday afternoon for windy
conditions... warm temperatures and low relative humidity for
the western half of Oklahoma and western North Texas...

The National Weather Service in Norman has issued a Fire Weather
Watch... which is in effect Tuesday afternoon.

* Timing... noon Tuesday through around 6 PM

* wind... southwest to west at 20 to 30 mph with gusts over 40
mph.

* Humidity... 18 to 25 percent

* temperature... afternoon highs in the mid 60s to lower 70s

* impacts... any fires that develop will likely spread rapidly.
Outdoor burning is not recommended.


Precautionary/preparedness actions...

A Fire Weather Watch means that critical fire weather conditions
are forecast to occur. Listen for later forecasts and possible
red flag warnings.